CNT weather

Crows Nest Helipad
Crows Nest, Queensland, Australia

Public forecast

Using degrees Celsius for public forecast. Weather courtesy of forecast.io.

Closest aviation weather report (METAR) to Crows Nest Helipad

Closest report is Oakey Airport, 19.4 nm (35.9 km) WSW. Retrieved 2020/04/02 09:00 UTC (22 minutes ago):

YBOK 020900Z 05007KT CAVOK 24/14 Q1014 NOSIG

Closest aviation forecast (TAF) to Crows Nest Helipad

Forecast is more than 6 hours old.

Closest forecast is RAAF Base Amberley, 41.5 nm (76.8 km) ESE. Retrieved 2020-04-02 00:00 UTC (9 hours ago):

TAF YAMB 012325Z 0200/0218 10006KT 9999 FEW035 FM020400 06009KT 9999 SCT045 FM021000 12005KT CAVOK FM021500 VRB02KT 9999 MIFG FEW030 PROB30 0216/0218 0600 FG FEW001